sensor_id;sensor_type;location;lat;lon;timestamp;pressure;altitude;pressure_sealevel;temperature;humidity
9141;BME280;46330;50.822;7.126;2023-01-25T00:00:44;102946.94;;;1.19;96.07
9141;BME280;46330;50.822;7.126;2023-01-25T00:03:13;102949.53;;;1.19;95.86
9141;BME280;46330;50.822;7.126;2023-01-25T00:05:41;102947.84;;;1.20;96.02
9141;BME280;46330;50.822;7.126;2023-01-25T00:08:09;102955.16;;;1.12;96.25
9141;BME280;46330;50.822;7.126;2023-01-25T00:10:37;102949.13;;;1.12;95.87
9141;BME280;46330;50.822;7.126;2023-01-25T00:13:05;102947.31;;;1.11;96.21
9141;BME280;46330;50.822;7.126;2023-01-25T00:15:33;102943.88;;;1.10;97.22
9141;BME280;46330;50.822;7.126;2023-01-25T00:18:01;102946.53;;;1.12;97.16
9141;BME280;46330;50.822;7.126;2023-01-25T00:20:30;102943.88;;;1.10;97.38
9141;BME280;46330;50.822;7.126;2023-01-25T00:22:59;102946.25;;;1.07;97.25
9141;BME280;46330;50.822;7.126;2023-01-25T00:25:26;102948.13;;;1.09;96.84
9141;BME280;46330;50.822;7.126;2023-01-25T00:27:54;102941.56;;;1.15;96.86
9141;BME280;46330;50.822;7.126;2023-01-25T00:34:09;102939.44;;;1.07;97.48
9141;BME280;46330;50.822;7.126;2023-01-25T00:36:55;102934.34;;;1.09;97.06
9141;BME280;46330;50.822;7.126;2023-01-25T00:39:25;102935.00;;;1.05;97.12
9141;BME280;46330;50.822;7.126;2023-01-25T00:41:54;102925.94;;;0.97;97.74
9141;BME280;46330;50.822;7.126;2023-01-25T00:44:22;102924.69;;;1.05;97.58
9141;BME280;46330;50.822;7.126;2023-01-25T00:46:49;102922.28;;;1.08;97.09
9141;BME280;46330;50.822;7.126;2023-01-25T00:49:19;102928.41;;;1.10;97.44
9141;BME280;46330;50.822;7.126;2023-01-25T00:51:48;102922.44;;;1.11;97.17
9141;BME280;46330;50.822;7.126;2023-01-25T00:54:17;102918.81;;;1.07;97.20
9141;BME280;46330;50.822;7.126;2023-01-25T00:56:46;102913.50;;;1.04;97.47
9141;BME280;46330;50.822;7.126;2023-01-25T00:59:14;102916.25;;;1.07;97.11
9141;BME280;46330;50.822;7.126;2023-01-25T01:01:42;102916.31;;;1.09;98.18
9141;BME280;46330;50.822;7.126;2023-01-25T01:04:10;102914.38;;;1.05;97.93
9141;BME280;46330;50.822;7.126;2023-01-25T01:06:40;102913.78;;;0.94;99.15
9141;BME280;46330;50.822;7.126;2023-01-25T01:09:13;102913.88;;;0.96;99.13
9141;BME280;46330;50.822;7.126;2023-01-25T01:11:42;102912.19;;;0.96;98.66
9141;BME280;46330;50.822;7.126;2023-01-25T01:14:10;102914.59;;;0.93;98.79
9141;BME280;46330;50.822;7.126;2023-01-25T01:16:39;102900.81;;;0.93;99.38
9141;BME280;46330;50.822;7.126;2023-01-25T01:19:08;102907.16;;;0.83;99.64
9141;BME280;46330;50.822;7.126;2023-01-25T01:21:36;102903.75;;;0.84;99.93
9141;BME280;46330;50.822;7.126;2023-01-25T01:24:05;102901.91;;;0.82;99.78
9141;BME280;46330;50.822;7.126;2023-01-25T01:26:33;102903.69;;;0.83;100.00
9141;BME280;46330;50.822;7.126;2023-01-25T01:29:02;102903.22;;;0.90;100.00
9141;BME280;46330;50.822;7.126;2023-01-25T01:31:30;102905.16;;;0.94;99.67
9141;BME280;46330;50.822;7.126;2023-01-25T01:34:13;102912.88;;;0.94;99.62
9141;BME280;46330;50.822;7.126;2023-01-25T01:36:41;102904.47;;;0.96;99.73
9141;BME280;46330;50.822;7.126;2023-01-25T01:39:09;102905.97;;;0.93;99.32
9141;BME280;46330;50.822;7.126;2023-01-25T01:41:37;102906.59;;;0.89;99.73
9141;BME280;46330;50.822;7.126;2023-01-25T01:44:13;102908.28;;;0.88;99.96
9141;BME280;46330;50.822;7.126;2023-01-25T01:46:48;102915.66;;;0.82;100.00
9141;BME280;46330;50.822;7.126;2023-01-25T01:49:23;102906.44;;;0.86;99.53
9141;BME280;46330;50.822;7.126;2023-01-25T01:51:57;102918.06;;;0.79;99.55
9141;BME280;46330;50.822;7.126;2023-01-25T01:54:34;102907.59;;;0.76;99.88
9141;BME280;46330;50.822;7.126;2023-01-25T01:57:07;102911.06;;;0.77;100.00
9141;BME280;46330;50.822;7.126;2023-01-25T01:59:41;102907.53;;;0.75;100.00
9141;BME280;46330;50.822;7.126;2023-01-25T02:02:12;102903.69;;;0.83;100.00
9141;BME280;46330;50.822;7.126;2023-01-25T02:04:41;102901.28;;;0.86;99.86
9141;BME280;46330;50.822;7.126;2023-01-25T02:07:16;102892.66;;;0.85;100.00
9141;BME280;46330;50.822;7.126;2023-01-25T02:09:47;102897.28;;;0.76;100.00
9141;BME280;46330;50.822;7.126;2023-01-25T02:12:18;102897.47;;;0.79;100.00
9141;BME280;46330;50.822;7.126;2023-01-25T02:14:51;102891.97;;;0.73;100.00
9141;BME280;46330;50.822;7.126;2023-01-25T02:17:23;102901.47;;;0.74;100.00
9141;BME280;46330;50.822;7.126;2023-01-25T02:20:00;102903.16;;;0.74;100.00
9141;BME280;46330;50.822;7.126;2023-01-25T02:22:44;102904.94;;;0.75;100.00
9141;BME280;46330;50.822;7.126;2023-01-25T02:25:15;102900.66;;;0.75;100.00
9141;BME280;46330;50.822;7.126;2023-01-25T02:27:47;102900.41;;;0.71;100.00
9141;BME280;46330;50.822;7.126;2023-01-25T02:30:18;102894.53;;;0.73;100.00
9141;BME280;46330;50.822;7.126;2023-01-25T02:32:46;102902.28;;;0.73;100.00
9141;BME280;46330;50.822;7.126;2023-01-25T02:35:18;102895.25;;;0.71;100.00
9141;BME280;46330;50.822;7.126;2023-01-25T02:37:48;102895.50;;;0.75;100.00
9141;BME280;46330;50.822;7.126;2023-01-25T02:40:17;102889.41;;;0.73;100.00
9141;BME280;46330;50.822;7.126;2023-01-25T02:42:46;102890.81;;;0.83;100.00
9141;BME280;46330;50.822;7.126;2023-01-25T02:45:16;102887.00;;;0.76;100.00
9141;BME280;46330;50.822;7.126;2023-01-25T02:47:45;102883.34;;;0.73;100.00
9141;BME280;46330;50.822;7.126;2023-01-25T02:50:14;102888.66;;;0.76;100.00
9141;BME280;46330;50.822;7.126;2023-01-25T02:52:42;102886.81;;;0.73;100.00
9141;BME280;46330;50.822;7.126;2023-01-25T02:55:11;102878.38;;;0.76;100.00
9141;BME280;46330;50.822;7.126;2023-01-25T02:57:42;102883.34;;;0.73;100.00
9141;BME280;46330;50.822;7.126;2023-01-25T03:00:12;102878.75;;;0.67;100.00
9141;BME280;46330;50.822;7.126;2023-01-25T03:02:40;102878.75;;;0.67;100.00
9141;BME280;46330;50.822;7.126;2023-01-25T03:05:08;102884.63;;;0.65;100.00
9141;BME280;46330;50.822;7.126;2023-01-25T03:07:37;102885.78;;;0.55;100.00
9141;BME280;46330;50.822;7.126;2023-01-25T03:10:07;102884.16;;;0.57;100.00
9141;BME280;46330;50.822;7.126;2023-01-25T03:12:35;102882.03;;;0.50;100.00
9141;BME280;46330;50.822;7.126;2023-01-25T03:15:07;102883.22;;;0.40;100.00
9141;BME280;46330;50.822;7.126;2023-01-25T03:17:35;102882.84;;;0.49;100.00
9141;BME280;46330;50.822;7.126;2023-01-25T03:20:04;102876.88;;;0.50;100.00
9141;BME280;46330;50.822;7.126;2023-01-25T03:22:33;102880.72;;;0.42;100.00
9141;BME280;46330;50.822;7.126;2023-01-25T03:25:01;102880.53;;;0.53;100.00
9141;BME280;46330;50.822;7.126;2023-01-25T03:27:29;102868.16;;;0.63;100.00
9141;BME280;46330;50.822;7.126;2023-01-25T03:30:10;102873.59;;;0.67;100.00
9141;BME280;46330;50.822;7.126;2023-01-25T03:32:38;102862.75;;;0.73;100.00
9141;BME280;46330;50.822;7.126;2023-01-25T03:35:09;102871.38;;;0.73;100.00
9141;BME280;46330;50.822;7.126;2023-01-25T03:37:37;102872.44;;;0.77;100.00
9141;BME280;46330;50.822;7.126;2023-01-25T03:40:06;102867.63;;;0.83;100.00
9141;BME280;46330;50.822;7.126;2023-01-25T03:42:35;102865.94;;;0.83;100.00
9141;BME280;46330;50.822;7.126;2023-01-25T03:45:04;102866.66;;;0.81;99.51
9141;BME280;46330;50.822;7.126;2023-01-25T03:47:35;102867.34;;;0.78;99.79
9141;BME280;46330;50.822;7.126;2023-01-25T03:50:03;102856.81;;;0.74;100.00
9141;BME280;46330;50.822;7.126;2023-01-25T03:52:31;102857.88;;;0.63;100.00
9141;BME280;46330;50.822;7.126;2023-01-25T03:55:06;102874.66;;;0.71;100.00
9141;BME280;46330;50.822;7.126;2023-01-25T03:57:39;102865.53;;;0.61;100.00
9141;BME280;46330;50.822;7.126;2023-01-25T04:00:09;102867.75;;;0.55;100.00
9141;BME280;46330;50.822;7.126;2023-01-25T04:02:44;102863.50;;;0.56;100.00
9141;BME280;46330;50.822;7.126;2023-01-25T04:05:16;102858.41;;;0.57;100.00
9141;BME280;46330;50.822;7.126;2023-01-25T04:07:44;102872.38;;;0.46;100.00
9141;BME280;46330;50.822;7.126;2023-01-25T04:10:14;102860.56;;;0.49;100.00
9141;BME280;46330;50.822;7.126;2023-01-25T04:12:45;102859.13;;;0.54;100.00
9141;BME280;46330;50.822;7.126;2023-01-25T04:15:13;102852.31;;;0.55;100.00
9141;BME280;46330;50.822;7.126;2023-01-25T04:17:41;102850.28;;;0.49;100.00
9141;BME280;46330;50.822;7.126;2023-01-25T04:20:16;102847.38;;;0.43;100.00
9141;BME280;46330;50.822;7.126;2023-01-25T04:22:44;102839.81;;;0.32;100.00
9141;BME280;46330;50.822;7.126;2023-01-25T04:25:14;102837.59;;;0.38;100.00
9141;BME280;46330;50.822;7.126;2023-01-25T04:27:49;102825.16;;;0.45;100.00
9141;BME280;46330;50.822;7.126;2023-01-25T04:30:17;102820.19;;;0.48;100.00
9141;BME280;46330;50.822;7.126;2023-01-25T04:32:47;102823.31;;;0.43;100.00
9141;BME280;46330;50.822;7.126;2023-01-25T04:35:22;102819.13;;;0.45;100.00
9141;BME280;46330;50.822;7.126;2023-01-25T04:37:53;102820.06;;;0.47;100.00
9141;BME280;46330;50.822;7.126;2023-01-25T04:40:24;102807.75;;;0.41;100.00
9141;BME280;46330;50.822;7.126;2023-01-25T04:42:53;102802.53;;;0.40;100.00
9141;BME280;46330;50.822;7.126;2023-01-25T04:45:22;102815.75;;;0.46;100.00
9141;BME280;46330;50.822;7.126;2023-01-25T04:47:55;102820.81;;;0.44;100.00
9141;BME280;46330;50.822;7.126;2023-01-25T04:50:27;102807.38;;;0.50;100.00
9141;BME280;46330;50.822;7.126;2023-01-25T04:52:55;102809.19;;;0.36;100.00
9141;BME280;46330;50.822;7.126;2023-01-25T04:55:23;102799.00;;;0.23;100.00
9141;BME280;46330;50.822;7.126;2023-01-25T04:57:53;102805.47;;;0.31;100.00
9141;BME280;46330;50.822;7.126;2023-01-25T05:00:21;102796.16;;;0.33;100.00
9141;BME280;46330;50.822;7.126;2023-01-25T05:02:49;102794.16;;;0.44;100.00
9141;BME280;46330;50.822;7.126;2023-01-25T05:05:17;102796.84;;;0.45;100.00
9141;BME280;46330;50.822;7.126;2023-01-25T05:07:48;102780.00;;;0.36;100.00
9141;BME280;46330;50.822;7.126;2023-01-25T05:10:16;102800.47;;;0.34;100.00
9141;BME280;46330;50.822;7.126;2023-01-25T05:13:04;102806.00;;;0.40;100.00
9141;BME280;46330;50.822;7.126;2023-01-25T05:15:32;102800.88;;;0.40;100.00
9141;BME280;46330;50.822;7.126;2023-01-25T05:18:01;102805.13;;;0.40;100.00
9141;BME280;46330;50.822;7.126;2023-01-25T05:20:32;102797.47;;;0.41;100.00
9141;BME280;46330;50.822;7.126;2023-01-25T05:23:01;102793.41;;;0.30;100.00
9141;BME280;46330;50.822;7.126;2023-01-25T05:25:30;102790.72;;;0.29;100.00
9141;BME280;46330;50.822;7.126;2023-01-25T05:28:22;102791.09;;;0.35;100.00
9141;BME280;46330;50.822;7.126;2023-01-25T05:31:02;102790.00;;;0.31;100.00
9141;BME280;46330;50.822;7.126;2023-01-25T05:33:33;102781.34;;;0.29;100.00
9141;BME280;46330;50.822;7.126;2023-01-25T05:36:01;102782.59;;;0.21;100.00
9141;BME280;46330;50.822;7.126;2023-01-25T05:38:34;102784.34;;;0.22;100.00
9141;BME280;46330;50.822;7.126;2023-01-25T05:41:02;102780.81;;;0.20;100.00
9141;BME280;46330;50.822;7.126;2023-01-25T05:43:30;102781.44;;;0.31;100.00
9141;BME280;46330;50.822;7.126;2023-01-25T05:45:58;102788.34;;;0.32;100.00
9141;BME280;46330;50.822;7.126;2023-01-25T05:48:28;102782.47;;;0.34;100.00
9141;BME280;46330;50.822;7.126;2023-01-25T05:50:57;102785.41;;;0.40;100.00
9141;BME280;46330;50.822;7.126;2023-01-25T05:53:25;102776.34;;;0.32;100.00
9141;BME280;46330;50.822;7.126;2023-01-25T05:55:55;102785.75;;;0.32;100.00
9141;BME280;46330;50.822;7.126;2023-01-25T05:58:22;102775.84;;;0.23;100.00
9141;BME280;46330;50.822;7.126;2023-01-25T06:00:50;102771.66;;;0.25;100.00
9141;BME280;46330;50.822;7.126;2023-01-25T06:03:30;102781.09;;;0.25;100.00
9141;BME280;46330;50.822;7.126;2023-01-25T06:05:59;102778.53;;;0.25;100.00
9141;BME280;46330;50.822;7.126;2023-01-25T06:08:30;102770.44;;;0.33;100.00
9141;BME280;46330;50.822;7.126;2023-01-25T06:11:05;102779.38;;;0.40;100.00
9141;BME280;46330;50.822;7.126;2023-01-25T06:13:34;102773.41;;;0.41;100.00
9141;BME280;46330;50.822;7.126;2023-01-25T06:16:03;102772.78;;;0.45;100.00
9141;BME280;46330;50.822;7.126;2023-01-25T06:18:41;102766.91;;;0.47;100.00
9141;BME280;46330;50.822;7.126;2023-01-25T06:21:21;102762.59;;;0.46;100.00
9141;BME280;46330;50.822;7.126;2023-01-25T06:23:49;102761.72;;;0.31;100.00
9141;BME280;46330;50.822;7.126;2023-01-25T06:26:18;102769.97;;;0.40;100.00
9141;BME280;46330;50.822;7.126;2023-01-25T06:28:46;102762.69;;;0.33;100.00
9141;BME280;46330;50.822;7.126;2023-01-25T06:31:15;102758.34;;;0.32;100.00
9141;BME280;46330;50.822;7.126;2023-01-25T06:33:47;102759.69;;;0.40;100.00
9141;BME280;46330;50.822;7.126;2023-01-25T06:36:19;102754.78;;;0.45;100.00
9141;BME280;46330;50.822;7.126;2023-01-25T06:38:49;102753.97;;;0.46;100.00
9141;BME280;46330;50.822;7.126;2023-01-25T06:41:19;102749.78;;;0.48;100.00
9141;BME280;46330;50.822;7.126;2023-01-25T06:43:49;102756.00;;;0.51;100.00
9141;BME280;46330;50.822;7.126;2023-01-25T06:46:18;102747.84;;;0.44;100.00
9141;BME280;46330;50.822;7.126;2023-01-25T06:48:46;102745.38;;;0.45;100.00
9141;BME280;46330;50.822;7.126;2023-01-25T06:51:14;102747.22;;;0.48;100.00
9141;BME280;46330;50.822;7.126;2023-01-25T06:53:44;102749.13;;;0.36;100.00
9141;BME280;46330;50.822;7.126;2023-01-25T06:56:13;102747.78;;;0.42;100.00
9141;BME280;46330;50.822;7.126;2023-01-25T06:58:45;102750.78;;;0.35;100.00
9141;BME280;46330;50.822;7.126;2023-01-25T07:01:15;102762.78;;;0.35;100.00
9141;BME280;46330;50.822;7.126;2023-01-25T07:03:47;102761.81;;;0.33;100.00
9141;BME280;46330;50.822;7.126;2023-01-25T07:06:15;102754.81;;;0.30;100.00
9141;BME280;46330;50.822;7.126;2023-01-25T07:08:43;102763.75;;;0.37;100.00
9141;BME280;46330;50.822;7.126;2023-01-25T07:11:12;102769.53;;;0.33;100.00
9141;BME280;46330;50.822;7.126;2023-01-25T07:13:41;102763.25;;;0.28;100.00
9141;BME280;46330;50.822;7.126;2023-01-25T07:16:13;102771.03;;;0.29;100.00
9141;BME280;46330;50.822;7.126;2023-01-25T07:18:41;102767.84;;;0.33;100.00
9141;BME280;46330;50.822;7.126;2023-01-25T07:21:10;102770.75;;;0.39;100.00
9141;BME280;46330;50.822;7.126;2023-01-25T07:23:39;102769.25;;;0.43;100.00
9141;BME280;46330;50.822;7.126;2023-01-25T07:26:13;102761.25;;;0.38;100.00
9141;BME280;46330;50.822;7.126;2023-01-25T07:28:42;102764.38;;;0.33;100.00
9141;BME280;46330;50.822;7.126;2023-01-25T07:31:11;102764.38;;;0.33;100.00
9141;BME280;46330;50.822;7.126;2023-01-25T07:33:40;102768.56;;;0.31;100.00
9141;BME280;46330;50.822;7.126;2023-01-25T07:36:09;102766.97;;;0.33;100.00
9141;BME280;46330;50.822;7.126;2023-01-25T07:38:37;102764.38;;;0.33;100.00
9141;BME280;46330;50.822;7.126;2023-01-25T07:41:05;102760.13;;;0.33;100.00
9141;BME280;46330;50.822;7.126;2023-01-25T07:43:33;102768.91;;;0.37;100.00
9141;BME280;46330;50.822;7.126;2023-01-25T07:46:07;102759.75;;;0.42;100.00
9141;BME280;46330;50.822;7.126;2023-01-25T07:48:38;102760.31;;;0.36;100.00
9141;BME280;46330;50.822;7.126;2023-01-25T07:51:09;102764.00;;;0.41;100.00
9141;BME280;46330;50.822;7.126;2023-01-25T07:53:42;102743.34;;;0.40;100.00
9141;BME280;46330;50.822;7.126;2023-01-25T07:56:11;102750.97;;;0.38;100.00
9141;BME280;46330;50.822;7.126;2023-01-25T07:58:39;102760.53;;;0.41;100.00
9141;BME280;46330;50.822;7.126;2023-01-25T08:01:07;102754.78;;;0.45;100.00
9141;BME280;46330;50.822;7.126;2023-01-25T08:03:37;102761.78;;;0.47;100.00
9141;BME280;46330;50.822;7.126;2023-01-25T08:06:06;102755.09;;;0.51;100.00
9141;BME280;46330;50.822;7.126;2023-01-25T08:08:38;102757.69;;;0.51;100.00
9141;BME280;46330;50.822;7.126;2023-01-25T08:11:09;102755.28;;;0.54;100.00
9141;BME280;46330;50.822;7.126;2023-01-25T08:13:38;102757.28;;;0.60;100.00
9141;BME280;46330;50.822;7.126;2023-01-25T08:16:06;102761.59;;;0.59;100.00
9141;BME280;46330;50.822;7.126;2023-01-25T08:18:34;102767.69;;;0.61;100.00
9141;BME280;46330;50.822;7.126;2023-01-25T08:21:04;102757.13;;;0.57;100.00
9141;BME280;46330;50.822;7.126;2023-01-25T08:23:32;102756.78;;;0.50;100.00
9141;BME280;46330;50.822;7.126;2023-01-25T08:26:03;102749.16;;;0.52;100.00
9141;BME280;46330;50.822;7.126;2023-01-25T08:28:31;102756.97;;;0.53;100.00
9141;BME280;46330;50.822;7.126;2023-01-25T08:31:07;102752.06;;;0.58;100.00
9141;BME280;46330;50.822;7.126;2023-01-25T08:33:36;102759.28;;;0.49;100.00
9141;BME280;46330;50.822;7.126;2023-01-25T08:36:05;102758.47;;;0.50;100.00
9141;BME280;46330;50.822;7.126;2023-01-25T08:38:34;102752.38;;;0.48;100.00
9141;BME280;46330;50.822;7.126;2023-01-25T08:41:05;102746.50;;;0.50;100.00
9141;BME280;46330;50.822;7.126;2023-01-25T08:43:33;102749.00;;;0.34;100.00
9141;BME280;46330;50.822;7.126;2023-01-25T08:46:02;102738.81;;;0.36;100.00
9141;BME280;46330;50.822;7.126;2023-01-25T08:48:30;102750.19;;;0.39;100.00
9141;BME280;46330;50.822;7.126;2023-01-25T08:50:58;102742.44;;;0.39;100.00
9141;BME280;46330;50.822;7.126;2023-01-25T08:53:28;102734.91;;;0.42;100.00
9141;BME280;46330;50.822;7.126;2023-01-25T08:56:01;102749.56;;;0.43;100.00
9141;BME280;46330;50.822;7.126;2023-01-25T08:58:29;102742.16;;;0.49;100.00
9141;BME280;46330;50.822;7.126;2023-01-25T09:01:00;102740.56;;;0.51;100.00
9141;BME280;46330;50.822;7.126;2023-01-25T09:03:29;102736.38;;;0.53;100.00
9141;BME280;46330;50.822;7.126;2023-01-25T09:05:58;102740.72;;;0.54;100.00
9141;BME280;46330;50.822;7.126;2023-01-25T09:08:25;102738.25;;;0.56;100.00
9141;BME280;46330;50.822;7.126;2023-01-25T09:10:59;102731.88;;;0.49;100.00
9141;BME280;46330;50.822;7.126;2023-01-25T09:13:27;102730.97;;;0.49;100.00
9141;BME280;46330;50.822;7.126;2023-01-25T09:15:59;102731.53;;;0.43;100.00
9141;BME280;46330;50.822;7.126;2023-01-25T09:18:27;102720.53;;;0.46;100.00
9141;BME280;46330;50.822;7.126;2023-01-25T09:20:56;102718.56;;;0.42;100.00
9141;BME280;46330;50.822;7.126;2023-01-25T09:23:24;102723.72;;;0.42;100.00
9141;BME280;46330;50.822;7.126;2023-01-25T09:25:56;102728.06;;;0.43;100.00
9141;BME280;46330;50.822;7.126;2023-01-25T09:28:24;102721.13;;;0.42;100.00
9141;BME280;46330;50.822;7.126;2023-01-25T09:30:53;102723.25;;;0.49;100.00
9141;BME280;46330;50.822;7.126;2023-01-25T09:34:08;102719.97;;;0.51;100.00
9141;BME280;46330;50.822;7.126;2023-01-25T09:36:36;102714.03;;;0.38;100.00
9141;BME280;46330;50.822;7.126;2023-01-25T09:39:04;102714.69;;;0.34;100.00
9141;BME280;46330;50.822;7.126;2023-01-25T09:41:54;102717.91;;;0.30;100.00
9141;BME280;46330;50.822;7.126;2023-01-25T09:44:48;102713.63;;;0.30;100.00
9141;BME280;46330;50.822;7.126;2023-01-25T09:47:25;102717.09;;;0.31;100.00
9141;BME280;46330;50.822;7.126;2023-01-25T09:50:10;102706.16;;;0.35;100.00
9141;BME280;46330;50.822;7.126;2023-01-25T09:55:38;102700.09;;;0.49;100.00
9141;BME280;46330;50.822;7.126;2023-01-25T09:58:13;102697.59;;;0.50;100.00
9141;BME280;46330;50.822;7.126;2023-01-25T10:00:43;102697.13;;;0.58;100.00
9141;BME280;46330;50.822;7.126;2023-01-25T10:03:20;102699.63;;;0.56;100.00
9141;BME280;46330;50.822;7.126;2023-01-25T10:05:51;102690.28;;;0.58;100.00
9141;BME280;46330;50.822;7.126;2023-01-25T10:08:25;102686.94;;;0.59;100.00
9141;BME280;46330;50.822;7.126;2023-01-25T10:10:59;102679.03;;;0.56;100.00
9141;BME280;46330;50.822;7.126;2023-01-25T10:13:30;102682.38;;;0.39;100.00
9141;BME280;46330;50.822;7.126;2023-01-25T10:16:03;102679.25;;;0.14;100.00
9141;BME280;46330;50.822;7.126;2023-01-25T10:18:54;102681.69;;;0.27;100.00
9141;BME280;46330;50.822;7.126;2023-01-25T10:21:27;102671.00;;;0.35;100.00
9141;BME280;46330;50.822;7.126;2023-01-25T10:24:12;102674.81;;;0.42;100.00
9141;BME280;46330;50.822;7.126;2023-01-25T10:26:49;102668.53;;;0.53;100.00
9141;BME280;46330;50.822;7.126;2023-01-25T10:29:21;102663.16;;;0.48;100.00
9141;BME280;46330;50.822;7.126;2023-01-25T10:31:52;102654.25;;;0.58;100.00
9141;BME280;46330;50.822;7.126;2023-01-25T10:34:23;102652.16;;;0.67;100.00
9141;BME280;46330;50.822;7.126;2023-01-25T10:36:53;102654.16;;;0.73;100.00
9141;BME280;46330;50.822;7.126;2023-01-25T10:39:22;102657.31;;;0.67;100.00
9141;BME280;46330;50.822;7.126;2023-01-25T10:41:54;102652.94;;;0.66;100.00
9141;BME280;46330;50.822;7.126;2023-01-25T10:44:25;102642.50;;;0.63;100.00
9141;BME280;46330;50.822;7.126;2023-01-25T10:46:57;102641.84;;;0.51;100.00
9141;BME280;46330;50.822;7.126;2023-01-25T10:49:30;102635.28;;;0.56;100.00
9141;BME280;46330;50.822;7.126;2023-01-25T10:52:13;102630.28;;;0.59;100.00
9141;BME280;46330;50.822;7.126;2023-01-25T10:54:42;102628.97;;;0.51;100.00
9141;BME280;46330;50.822;7.126;2023-01-25T10:57:13;102620.94;;;0.61;100.00
9141;BME280;46330;50.822;7.126;2023-01-25T10:59:50;102616.00;;;0.66;100.00
9141;BME280;46330;50.822;7.126;2023-01-25T11:02:38;102610.00;;;0.65;100.00
9141;BME280;46330;50.822;7.126;2023-01-25T11:05:31;102611.03;;;0.69;100.00
9141;BME280;46330;50.822;7.126;2023-01-25T11:08:20;102612.75;;;0.68;100.00
9141;BME280;46330;50.822;7.126;2023-01-25T11:10:50;102605.81;;;0.67;100.00
9141;BME280;46330;50.822;7.126;2023-01-25T11:13:23;102600.09;;;0.73;100.00
9141;BME280;46330;50.822;7.126;2023-01-25T11:16:13;102594.78;;;0.70;100.00
9141;BME280;46330;50.822;7.126;2023-01-25T11:18:49;102609.50;;;0.72;100.00
9141;BME280;46330;50.822;7.126;2023-01-25T11:21:19;102607.81;;;0.73;100.00
9141;BME280;46330;50.822;7.126;2023-01-25T11:24:00;102597.59;;;0.58;100.00
9141;BME280;46330;50.822;7.126;2023-01-25T11:26:32;102589.56;;;0.52;100.00
9141;BME280;46330;50.822;7.126;2023-01-25T11:29:09;102588.53;;;0.65;100.00
9141;BME280;46330;50.822;7.126;2023-01-25T11:31:41;102593.16;;;0.72;100.00
9141;BME280;46330;50.822;7.126;2023-01-25T11:34:13;102590.84;;;0.76;100.00
9141;BME280;46330;50.822;7.126;2023-01-25T11:36:53;102582.97;;;0.57;100.00
9141;BME280;46330;50.822;7.126;2023-01-25T11:39:34;102580.69;;;0.63;100.00
9141;BME280;46330;50.822;7.126;2023-01-25T11:42:14;102578.28;;;0.66;100.00
9141;BME280;46330;50.822;7.126;2023-01-25T11:45:26;102571.28;;;0.64;100.00
9141;BME280;46330;50.822;7.126;2023-01-25T11:48:18;102563.09;;;0.71;100.00
9141;BME280;46330;50.822;7.126;2023-01-25T11:50:56;102556.88;;;0.67;100.00
9141;BME280;46330;50.822;7.126;2023-01-25T11:53:48;102542.34;;;0.68;100.00
9141;BME280;46330;50.822;7.126;2023-01-25T11:56:29;102542.03;;;0.62;100.00
9141;BME280;46330;50.822;7.126;2023-01-25T11:59:12;102540.81;;;0.55;100.00
9141;BME280;46330;50.822;7.126;2023-01-25T12:01:58;102536.19;;;0.66;100.00
9141;BME280;46330;50.822;7.126;2023-01-25T12:07:33;102521.47;;;0.63;100.00
9141;BME280;46330;50.822;7.126;2023-01-25T12:10:20;102509.47;;;0.80;100.00
9141;BME280;46330;50.822;7.126;2023-01-25T12:12:55;102492.44;;;0.66;100.00
9141;BME280;46330;50.822;7.126;2023-01-25T12:15:58;102492.84;;;0.57;100.00
9141;BME280;46330;50.822;7.126;2023-01-25T12:18:43;102486.44;;;0.49;100.00
9141;BME280;46330;50.822;7.126;2023-01-25T12:21:23;102478.06;;;0.53;100.00
9141;BME280;46330;50.822;7.126;2023-01-25T12:24:07;102477.59;;;0.44;100.00
9141;BME280;46330;50.822;7.126;2023-01-25T12:26:50;102471.06;;;0.50;100.00
9141;BME280;46330;50.822;7.126;2023-01-25T12:29:25;102465.44;;;0.58;100.00
9141;BME280;46330;50.822;7.126;2023-01-25T12:31:59;102465.19;;;0.53;100.00
9141;BME280;46330;50.822;7.126;2023-01-25T12:34:33;102445.78;;;0.60;100.00
9141;BME280;46330;50.822;7.126;2023-01-25T12:37:10;102456.66;;;0.54;100.00
9141;BME280;46330;50.822;7.126;2023-01-25T12:39:43;102442.50;;;0.62;100.00
9141;BME280;46330;50.822;7.126;2023-01-25T12:42:17;102435.63;;;0.63;100.00
9141;BME280;46330;50.822;7.126;2023-01-25T12:44:51;102433.31;;;0.67;100.00
9141;BME280;46330;50.822;7.126;2023-01-25T12:47:27;102424.34;;;0.77;100.00
9141;BME280;46330;50.822;7.126;2023-01-25T12:50:01;102412.06;;;0.71;100.00
9141;BME280;46330;50.822;7.126;2023-01-25T12:52:34;102411.97;;;0.52;100.00
9141;BME280;46330;50.822;7.126;2023-01-25T12:55:04;102407.03;;;0.57;100.00
9141;BME280;46330;50.822;7.126;2023-01-25T12:57:36;102400.38;;;0.44;100.00
9141;BME280;46330;50.822;7.126;2023-01-25T13:00:16;102403.25;;;0.50;100.00
9141;BME280;46330;50.822;7.126;2023-01-25T13:02:59;102396.97;;;0.61;100.00
9141;BME280;46330;50.822;7.126;2023-01-25T13:05:33;102392.47;;;0.57;100.00
9141;BME280;46330;50.822;7.126;2023-01-25T13:08:16;102387.56;;;0.62;100.00
9141;BME280;46330;50.822;7.126;2023-01-25T13:11:07;102379.09;;;0.46;100.00
9141;BME280;46330;50.822;7.126;2023-01-25T13:13:36;102376.91;;;0.38;100.00
9141;BME280;46330;50.822;7.126;2023-01-25T13:16:27;102363.94;;;0.52;100.00
9141;BME280;46330;50.822;7.126;2023-01-25T13:18:59;102372.69;;;0.56;100.00
9141;BME280;46330;50.822;7.126;2023-01-25T13:21:42;102363.34;;;0.58;100.00
9141;BME280;46330;50.822;7.126;2023-01-25T13:24:23;102354.13;;;0.63;100.00
9141;BME280;46330;50.822;7.126;2023-01-25T13:27:22;102351.38;;;0.59;100.00
9141;BME280;46330;50.822;7.126;2023-01-25T13:29:59;102340.31;;;0.61;100.00
9141;BME280;46330;50.822;7.126;2023-01-25T13:33:02;102332.22;;;0.53;100.00
9141;BME280;46330;50.822;7.126;2023-01-25T13:35:40;102332.59;;;0.61;100.00
9141;BME280;46330;50.822;7.126;2023-01-25T13:38:29;102332.66;;;0.45;100.00
9141;BME280;46330;50.822;7.126;2023-01-25T13:41:10;102327.00;;;0.52;100.00